createdAt,value
2018-02-22T00:00:19.376Z,0.00
2018-02-22T00:01:19.377Z,0.00
2018-02-22T00:02:19.378Z,0.00
2018-02-22T00:03:19.373Z,0.00
2018-02-22T00:04:19.390Z,0.00
2018-02-22T00:05:19.378Z,0.00
2018-02-22T00:06:19.381Z,0.00
2018-02-22T00:07:19.378Z,0.00
2018-02-22T00:08:19.376Z,0.00
2018-02-22T00:09:19.380Z,0.00
2018-02-22T00:10:19.373Z,0.00
2018-02-22T00:11:19.374Z,0.00
2018-02-22T00:12:19.379Z,0.00
2018-02-22T00:13:19.378Z,0.00
2018-02-22T00:14:19.373Z,0.00
2018-02-22T00:15:19.373Z,0.00
2018-02-22T00:16:19.379Z,0.00
2018-02-22T00:17:19.379Z,0.00
2018-02-22T00:18:19.378Z,0.00
2018-02-22T00:19:19.372Z,0.00
2018-02-22T00:20:19.374Z,0.00
2018-02-22T00:21:19.377Z,0.00
2018-02-22T00:22:19.374Z,0.00
2018-02-22T00:23:19.385Z,0.00
2018-02-22T00:24:19.376Z,0.00
2018-02-22T00:25:19.375Z,0.00
2018-02-22T00:26:19.378Z,0.00
2018-02-22T00:27:19.377Z,0.00
2018-02-22T00:28:19.370Z,0.00
2018-02-22T00:29:19.372Z,0.00
2018-02-22T00:30:19.379Z,0.00
2018-02-22T00:31:19.380Z,0.00
2018-02-22T00:32:19.375Z,0.00
2018-02-22T00:33:19.377Z,0.00
2018-02-22T00:34:19.376Z,0.00
2018-02-22T00:35:19.379Z,0.00
2018-02-22T00:36:19.373Z,0.00
2018-02-22T00:37:19.377Z,0.00
2018-02-22T00:38:19.372Z,0.00
2018-02-22T00:39:19.377Z,0.00
2018-02-22T00:40:19.377Z,0.00
2018-02-22T00:41:19.378Z,0.00
2018-02-22T00:42:19.382Z,0.00
2018-02-22T00:43:19.375Z,0.00
2018-02-22T00:44:19.375Z,0.00
2018-02-22T00:45:19.377Z,0.00
2018-02-22T00:46:19.371Z,0.00
2018-02-22T00:47:19.373Z,0.00
2018-02-22T00:48:19.375Z,0.00
2018-02-22T00:49:19.377Z,0.00
2018-02-22T00:50:19.372Z,0.00
2018-02-22T00:51:19.373Z,0.00
2018-02-22T00:52:19.378Z,0.00
2018-02-22T00:53:19.372Z,0.00
2018-02-22T00:54:19.374Z,0.00
2018-02-22T00:55:19.375Z,0.00
2018-02-22T00:56:19.374Z,0.00
2018-02-22T00:57:19.376Z,0.00
2018-02-22T00:58:19.373Z,0.00
2018-02-22T00:59:19.375Z,0.00
2018-02-22T01:00:19.374Z,0.00
2018-02-22T01:01:19.376Z,0.00
2018-02-22T01:02:19.370Z,0.00
2018-02-22T01:03:19.375Z,0.00
2018-02-22T01:04:19.372Z,0.00
2018-02-22T01:05:19.373Z,0.00
2018-02-22T01:06:19.378Z,0.00
2018-02-22T01:07:19.371Z,0.00
2018-02-22T01:08:19.372Z,0.00
2018-02-22T01:09:19.374Z,0.00
2018-02-22T01:10:19.376Z,0.00
2018-02-22T01:11:19.379Z,0.00
2018-02-22T01:12:19.370Z,0.00
2018-02-22T01:13:19.369Z,0.00
2018-02-22T01:14:19.379Z,0.00
2018-02-22T01:15:19.372Z,0.00
2018-02-22T01:16:19.373Z,0.00
2018-02-22T01:17:19.372Z,0.00
2018-02-22T01:18:19.380Z,0.00
2018-02-22T01:19:19.373Z,0.00
2018-02-22T01:20:19.373Z,0.00
2018-02-22T01:21:19.378Z,0.00
2018-02-22T01:22:19.369Z,0.00
2018-02-22T01:23:19.374Z,0.00
2018-02-22T01:24:19.370Z,0.00
2018-02-22T01:25:19.374Z,0.00
2018-02-22T01:26:19.376Z,0.00
2018-02-22T01:27:19.372Z,0.00
2018-02-22T01:28:19.370Z,0.00
2018-02-22T01:29:19.368Z,0.00
2018-02-22T01:30:19.375Z,0.00
2018-02-22T01:31:19.370Z,0.00
2018-02-22T01:32:19.372Z,0.00
2018-02-22T01:33:19.366Z,0.00
2018-02-22T01:34:20.218Z,0.00
2018-02-22T01:35:19.373Z,0.00
2018-02-22T01:36:19.371Z,0.00
2018-02-22T01:37:19.371Z,0.00
2018-02-22T01:38:19.369Z,0.00
2018-02-22T01:39:19.368Z,0.00
2018-02-22T01:40:19.377Z,0.00
2018-02-22T01:41:19.369Z,0.00
2018-02-22T01:42:19.363Z,0.00
2018-02-22T01:43:19.365Z,0.00
2018-02-22T01:44:19.371Z,0.00
2018-02-22T01:45:19.369Z,0.00
2018-02-22T01:46:19.366Z,0.00
2018-02-22T01:47:19.373Z,0.00
2018-02-22T01:48:19.368Z,0.00
2018-02-22T01:49:19.370Z,0.00
2018-02-22T01:50:19.367Z,0.00
2018-02-22T01:51:19.369Z,0.00
2018-02-22T01:52:19.365Z,0.00
2018-02-22T01:53:19.367Z,0.00
2018-02-22T01:54:19.383Z,0.00
2018-02-22T01:55:19.367Z,0.00
2018-02-22T01:56:19.367Z,0.00
2018-02-22T01:57:19.368Z,0.00
2018-02-22T01:58:19.364Z,0.00
2018-02-22T01:59:19.363Z,0.00
2018-02-22T02:00:19.367Z,0.00
2018-02-22T02:01:19.361Z,0.00
2018-02-22T02:02:19.369Z,0.00
2018-02-22T02:03:19.368Z,0.00
2018-02-22T02:04:19.362Z,0.00
2018-02-22T02:05:19.361Z,0.00
2018-02-22T02:06:19.364Z,0.00
2018-02-22T02:07:19.365Z,0.00
2018-02-22T02:08:19.362Z,0.00
2018-02-22T02:09:19.357Z,0.00
2018-02-22T02:10:19.362Z,0.00
2018-02-22T02:11:19.361Z,0.00
2018-02-22T02:12:20.224Z,0.00
2018-02-22T02:13:19.361Z,0.00
2018-02-22T02:14:19.360Z,0.00
2018-02-22T02:15:19.358Z,0.00
2018-02-22T02:16:19.362Z,0.00
2018-02-22T02:17:19.360Z,0.00
2018-02-22T02:18:20.249Z,0.00
2018-02-22T02:19:21.029Z,0.00
2018-02-22T02:20:20.162Z,0.00
2018-02-22T02:21:19.959Z,0.00
2018-02-22T02:22:19.356Z,0.00
2018-02-22T02:23:19.350Z,0.00
2018-02-22T02:24:19.357Z,0.00
2018-02-22T02:25:19.354Z,0.00
2018-02-22T02:26:19.353Z,0.00
2018-02-22T02:27:19.355Z,0.00
2018-02-22T02:28:19.350Z,0.00
2018-02-22T02:29:19.355Z,0.00
2018-02-22T02:30:19.354Z,0.00
2018-02-22T02:31:19.356Z,0.00
2018-02-22T02:32:19.354Z,0.00
2018-02-22T02:33:19.355Z,0.00
2018-02-22T02:34:19.351Z,0.00
2018-02-22T02:35:19.354Z,0.00
2018-02-22T02:36:19.351Z,4.00
2018-02-22T02:37:19.353Z,0.00
2018-02-22T02:38:19.347Z,0.00
2018-02-22T02:39:19.352Z,0.00
2018-02-22T02:40:19.350Z,0.00
2018-02-22T02:41:19.351Z,0.00
2018-02-22T02:42:19.349Z,0.00
2018-02-22T02:43:19.351Z,0.00
2018-02-22T02:44:19.351Z,0.00
2018-02-22T02:45:19.352Z,0.00
2018-02-22T02:46:19.346Z,0.00
2018-02-22T02:47:19.385Z,0.00
2018-02-22T02:48:19.348Z,0.00
2018-02-22T02:49:19.348Z,0.00
2018-02-22T02:50:19.348Z,0.00
2018-02-22T02:51:19.349Z,0.00
2018-02-22T02:52:19.346Z,0.00
2018-02-22T02:53:19.344Z,0.00
2018-02-22T02:54:19.347Z,0.00
2018-02-22T02:55:19.343Z,0.00
2018-02-22T02:56:19.345Z,0.00
2018-02-22T02:57:19.343Z,0.00
2018-02-22T02:58:19.343Z,0.00
2018-02-22T02:59:19.338Z,0.00
2018-02-22T03:00:19.342Z,0.00
2018-02-22T03:01:19.341Z,0.00
2018-02-22T03:02:19.344Z,0.00
2018-02-22T03:03:19.335Z,0.00
2018-02-22T03:04:19.345Z,0.00
2018-02-22T03:05:19.339Z,0.00
2018-02-22T03:06:19.333Z,0.00
2018-02-22T03:07:19.335Z,0.00
2018-02-22T03:08:19.338Z,0.00
2018-02-22T03:09:19.337Z,0.00
2018-02-22T03:10:19.336Z,0.00
2018-02-22T03:11:19.333Z,0.00
2018-02-22T03:12:19.332Z,0.00
2018-02-22T03:13:19.332Z,0.00
2018-02-22T03:14:19.335Z,0.00
2018-02-22T03:15:19.329Z,0.00
2018-02-22T03:16:19.333Z,0.00
2018-02-22T03:17:19.329Z,0.00
2018-02-22T03:18:19.334Z,0.00
2018-02-22T03:19:19.330Z,0.00
2018-02-22T03:20:19.331Z,0.00
2018-02-22T03:21:19.325Z,0.00
2018-02-22T03:22:19.330Z,0.00
2018-02-22T03:23:19.333Z,0.00
2018-02-22T03:24:19.333Z,0.00
2018-02-22T03:25:19.322Z,0.00
2018-02-22T03:26:19.330Z,0.00
2018-02-22T03:27:19.325Z,0.00
2018-02-22T03:28:19.325Z,0.00
2018-02-22T03:29:19.323Z,0.00
2018-02-22T03:30:19.326Z,0.00
2018-02-22T03:31:19.328Z,0.00
2018-02-22T03:32:19.326Z,0.00
2018-02-22T03:33:19.318Z,0.00
2018-02-22T03:34:19.327Z,0.00
2018-02-22T03:35:19.323Z,0.00
2018-02-22T03:36:19.321Z,0.00
2018-02-22T03:37:19.323Z,0.00
2018-02-22T03:38:19.318Z,0.00
2018-02-22T03:39:19.323Z,0.00
2018-02-22T03:40:19.320Z,0.00
2018-02-22T03:41:19.326Z,4.00
2018-02-22T03:42:19.316Z,0.00
2018-02-22T03:43:19.319Z,0.00
2018-02-22T03:44:19.316Z,0.00
2018-02-22T03:45:19.326Z,0.00
2018-02-22T03:46:19.319Z,0.00
2018-02-22T03:47:19.312Z,0.00
2018-02-22T03:48:19.322Z,0.00
2018-02-22T03:49:19.320Z,0.00
2018-02-22T03:50:19.311Z,0.00
2018-02-22T03:51:19.315Z,0.00
2018-02-22T03:52:19.311Z,0.00
2018-02-22T03:53:19.312Z,0.00
2018-02-22T03:54:19.314Z,0.00
2018-02-22T03:55:19.313Z,0.00
2018-02-22T03:56:19.317Z,0.00
2018-02-22T03:57:19.308Z,0.00
2018-02-22T03:58:19.315Z,0.00
2018-02-22T03:59:19.308Z,0.00
2018-02-22T04:00:19.309Z,0.00
2018-02-22T04:01:19.305Z,0.00
2018-02-22T04:02:19.307Z,0.00
2018-02-22T04:03:19.304Z,0.00
2018-02-22T04:04:19.308Z,0.00
2018-02-22T04:05:19.315Z,0.00
2018-02-22T04:06:19.306Z,0.00
2018-02-22T04:07:19.307Z,0.00
2018-02-22T04:08:19.307Z,0.00
2018-02-22T04:09:19.304Z,0.00
2018-02-22T04:10:19.305Z,0.00
2018-02-22T04:11:19.305Z,0.00
2018-02-22T04:12:19.304Z,0.00
2018-02-22T04:13:19.302Z,0.00
2018-02-22T04:14:19.301Z,0.00
2018-02-22T04:15:19.303Z,0.00
2018-02-22T04:16:19.303Z,0.00
2018-02-22T04:17:19.298Z,0.00
2018-02-22T04:18:19.309Z,0.00
2018-02-22T04:19:19.304Z,0.00
2018-02-22T04:20:20.245Z,0.00
2018-02-22T04:21:19.354Z,0.00
2018-02-22T04:22:19.305Z,0.00
2018-02-22T04:23:19.296Z,0.00
2018-02-22T04:24:19.299Z,0.00
2018-02-22T04:25:19.297Z,0.00
2018-02-22T04:26:19.295Z,0.00
2018-02-22T04:27:19.292Z,0.00
2018-02-22T04:28:19.294Z,0.00
2018-02-22T04:29:19.296Z,0.00
2018-02-22T04:30:19.291Z,0.00
2018-02-22T04:31:19.291Z,0.00
2018-02-22T04:32:19.300Z,0.00
2018-02-22T04:33:19.292Z,0.00
2018-02-22T04:34:19.289Z,4.00
2018-02-22T04:35:19.288Z,0.00
2018-02-22T04:36:19.288Z,0.00
2018-02-22T04:37:19.285Z,0.00
2018-02-22T04:38:19.285Z,0.00
2018-02-22T04:39:19.285Z,0.00
2018-02-22T04:40:19.282Z,0.00
2018-02-22T04:41:19.282Z,0.00
2018-02-22T04:42:19.281Z,0.00
2018-02-22T04:43:19.282Z,0.00
2018-02-22T04:44:19.284Z,0.00
2018-02-22T04:45:19.282Z,0.00
2018-02-22T04:46:19.285Z,0.00
2018-02-22T04:47:19.278Z,0.00
2018-02-22T04:48:19.283Z,0.00
2018-02-22T04:49:19.279Z,0.00
2018-02-22T04:50:19.284Z,0.00
2018-02-22T04:51:19.274Z,0.00
2018-02-22T04:52:19.273Z,0.00
2018-02-22T04:53:19.279Z,0.00
2018-02-22T04:54:19.279Z,0.00
2018-02-22T04:55:19.276Z,0.00
2018-02-22T04:56:19.279Z,0.00
2018-02-22T04:57:19.275Z,0.00
2018-02-22T04:58:19.270Z,0.00
2018-02-22T04:59:19.281Z,0.00
2018-02-22T05:00:19.274Z,4.00
2018-02-22T05:01:19.273Z,0.00
2018-02-22T05:02:19.270Z,0.00
2018-02-22T05:03:19.269Z,0.00
2018-02-22T05:04:19.272Z,0.00
2018-02-22T05:05:19.266Z,0.00
2018-02-22T05:06:19.265Z,0.00
2018-02-22T05:07:19.263Z,0.00
2018-02-22T05:08:19.266Z,0.00
2018-02-22T05:09:19.266Z,0.00
2018-02-22T05:10:19.268Z,0.00
2018-02-22T05:11:19.273Z,0.00
2018-02-22T05:12:19.264Z,0.00
2018-02-22T05:13:19.263Z,0.00
2018-02-22T05:14:19.257Z,0.00
2018-02-22T05:15:19.260Z,0.00
2018-02-22T05:16:19.266Z,0.00
2018-02-22T05:17:19.309Z,0.00
2018-02-22T05:18:19.284Z,0.00
2018-02-22T05:19:19.313Z,0.00
2018-02-22T05:20:19.263Z,0.00
2018-02-22T05:21:19.250Z,0.00
2018-02-22T05:22:19.257Z,0.00
2018-02-22T05:23:19.257Z,0.00
2018-02-22T05:24:19.255Z,0.00
2018-02-22T05:25:19.265Z,0.00
2018-02-22T05:26:19.259Z,0.00
2018-02-22T05:27:19.254Z,0.00
2018-02-22T05:28:19.253Z,0.00
2018-02-22T05:29:19.285Z,0.00
2018-02-22T05:30:19.248Z,0.00
2018-02-22T05:31:19.252Z,4.00
2018-02-22T05:32:19.250Z,0.00
2018-02-22T05:33:19.254Z,0.00
2018-02-22T05:34:19.275Z,0.00
2018-02-22T05:35:19.253Z,0.00
2018-02-22T05:36:19.245Z,0.00
2018-02-22T05:37:19.252Z,0.00
2018-02-22T05:38:19.246Z,0.00
2018-02-22T05:39:19.246Z,0.00
2018-02-22T05:40:19.247Z,4.00
2018-02-22T05:41:19.245Z,0.00
2018-02-22T05:42:19.418Z,4.00
2018-02-22T05:43:19.240Z,0.00
2018-02-22T05:44:19.243Z,0.00
2018-02-22T05:45:19.248Z,0.00
2018-02-22T05:46:19.249Z,4.00
2018-02-22T05:47:19.237Z,0.00
2018-02-22T05:48:19.270Z,0.00
2018-02-22T05:49:19.240Z,0.00
2018-02-22T05:50:19.234Z,4.00
2018-02-22T05:51:19.238Z,4.00
2018-02-22T05:52:19.245Z,4.00
2018-02-22T05:53:19.231Z,0.00
2018-02-22T05:54:19.236Z,0.00
2018-02-22T05:55:19.283Z,4.00
2018-02-22T05:56:19.240Z,4.00
2018-02-22T05:57:19.232Z,4.00
2018-02-22T05:58:19.234Z,4.00
2018-02-22T05:59:19.231Z,4.00
2018-02-22T06:00:19.232Z,4.00
2018-02-22T06:01:19.223Z,4.00
2018-02-22T06:02:19.232Z,4.00
2018-02-22T06:03:19.229Z,8.00
2018-02-22T06:04:19.231Z,8.00
2018-02-22T06:05:19.225Z,8.00
2018-02-22T06:06:19.228Z,12.00
2018-02-22T06:07:19.223Z,12.00
2018-02-22T06:08:19.227Z,16.00
2018-02-22T06:09:19.228Z,16.00
2018-02-22T06:10:19.222Z,20.00
2018-02-22T06:11:19.224Z,20.00
2018-02-22T06:12:19.223Z,28.00
2018-02-22T06:13:19.222Z,28.00
2018-02-22T06:14:19.223Z,32.00
2018-02-22T06:15:19.221Z,40.00
2018-02-22T06:16:19.219Z,44.00
2018-02-22T06:17:19.220Z,52.00
2018-02-22T06:18:19.217Z,60.00
2018-02-22T06:19:19.234Z,68.00
2018-02-22T06:20:19.224Z,72.00
2018-02-22T06:21:19.221Z,84.00
2018-02-22T06:22:19.214Z,96.00
2018-02-22T06:23:19.217Z,104.00
2018-02-22T06:24:19.215Z,116.00
2018-02-22T06:25:19.222Z,128.00
2018-02-22T06:26:19.213Z,144.00
2018-02-22T06:27:19.212Z,156.00
2018-02-22T06:28:19.215Z,172.00
2018-02-22T06:29:19.217Z,188.00
2018-02-22T06:30:19.211Z,204.00
2018-02-22T06:31:19.209Z,228.00
2018-02-22T06:32:19.209Z,244.00
2018-02-22T06:33:19.211Z,264.00
2018-02-22T06:34:19.210Z,288.00
2018-02-22T06:35:19.206Z,308.00
2018-02-22T06:36:19.211Z,332.00
2018-02-22T06:37:19.206Z,360.00
2018-02-22T06:38:19.203Z,380.00
2018-02-22T06:39:19.202Z,408.00
2018-02-22T06:40:19.206Z,440.00
2018-02-22T06:41:19.204Z,476.00
2018-02-22T06:42:19.214Z,512.00
2018-02-22T06:43:19.207Z,540.00
2018-02-22T06:44:19.201Z,576.00
2018-02-22T06:45:19.202Z,612.00
2018-02-22T06:46:19.199Z,648.00
2018-02-22T06:47:19.200Z,688.00
2018-02-22T06:48:19.198Z,728.00
2018-02-22T06:49:19.200Z,768.00
2018-02-22T06:50:19.198Z,812.00
2018-02-22T06:51:19.200Z,860.00
2018-02-22T06:52:19.198Z,908.00
2018-02-22T06:53:19.198Z,952.00
2018-02-22T06:54:19.192Z,996.00
2018-02-22T06:55:19.194Z,1044.00
2018-02-22T06:56:19.195Z,1088.00
2018-02-22T06:57:19.197Z,1144.00
2018-02-22T06:58:19.192Z,1204.00
2018-02-22T06:59:19.198Z,1260.00
2018-02-22T07:00:19.200Z,1320.00
2018-02-22T07:01:19.193Z,1372.00
2018-02-22T07:02:19.191Z,1428.00
2018-02-22T07:03:19.192Z,1488.00
2018-02-22T07:04:19.194Z,1540.00
2018-02-22T07:05:19.190Z,1600.00
2018-02-22T07:06:19.194Z,1656.00
2018-02-22T07:07:19.189Z,1712.00
2018-02-22T07:08:19.190Z,1772.00
2018-02-22T07:09:19.187Z,1832.00
2018-02-22T07:10:19.190Z,1892.00
2018-02-22T07:11:19.185Z,1956.00
2018-02-22T07:12:19.192Z,2024.00
2018-02-22T07:13:19.182Z,2080.00
2018-02-22T07:14:19.189Z,2144.00
2018-02-22T07:15:19.186Z,2208.00
2018-02-22T07:16:19.186Z,2260.00
2018-02-22T07:17:19.185Z,2320.00
2018-02-22T07:18:19.187Z,2384.00
2018-02-22T07:19:19.183Z,2460.00
2018-02-22T07:20:19.184Z,2508.00
2018-02-22T07:21:19.184Z,2600.00
2018-02-22T07:22:19.877Z,2636.00
2018-02-22T07:23:19.182Z,2712.00
2018-02-22T07:24:19.181Z,2784.00
2018-02-22T07:25:19.189Z,2852.00
2018-02-22T07:26:19.199Z,2912.00
2018-02-22T07:27:19.184Z,2964.00
2018-02-22T07:28:19.212Z,3032.00
2018-02-22T07:29:19.183Z,3108.00
2018-02-22T07:30:19.179Z,3188.00
2018-02-22T07:31:19.182Z,3252.00
2018-02-22T07:32:19.184Z,3316.00
2018-02-22T07:33:19.178Z,3384.00
2018-02-22T07:34:19.177Z,3456.00
2018-02-22T07:35:19.183Z,3524.00
2018-02-22T07:36:19.177Z,3588.00
2018-02-22T07:37:19.883Z,3660.00
2018-02-22T07:38:19.177Z,3728.00
2018-02-22T07:39:19.181Z,3788.00
2018-02-22T07:40:19.280Z,3844.00
2018-02-22T07:41:19.187Z,3888.00
2018-02-22T07:42:19.179Z,3940.00
2018-02-22T07:43:19.228Z,3980.00
2018-02-22T07:44:19.181Z,4036.00
2018-02-22T07:45:19.182Z,4092.00
2018-02-22T07:46:19.177Z,4148.00
2018-02-22T07:47:19.175Z,4256.00
2018-02-22T07:48:19.180Z,4288.00
2018-02-22T07:49:19.183Z,4332.00
2018-02-22T07:50:19.197Z,4424.00
2018-02-22T07:51:19.181Z,4456.00
2018-02-22T07:52:19.181Z,4496.00
2018-02-22T07:53:19.230Z,4544.00
2018-02-22T07:54:19.182Z,4584.00
2018-02-22T07:55:19.178Z,4600.00
2018-02-22T07:56:19.182Z,4616.00
2018-02-22T07:57:19.180Z,4696.00
2018-02-22T07:58:19.250Z,4704.00
2018-02-22T07:59:19.179Z,4736.00
2018-02-22T08:00:19.180Z,4788.00
2018-02-22T08:01:19.184Z,4868.00
2018-02-22T08:02:19.217Z,4972.00
2018-02-22T08:03:19.224Z,5328.00
2018-02-22T08:04:19.280Z,14624.00
2018-02-22T08:05:19.268Z,29504.00
2018-02-22T08:06:19.271Z,43776.00
2018-02-22T08:07:19.268Z,47872.00
2018-02-22T08:08:19.184Z,48096.00
2018-02-22T08:09:19.188Z,48000.00
2018-02-22T08:10:19.192Z,48672.00
2018-02-22T08:11:19.192Z,50400.00
2018-02-22T08:12:19.192Z,51840.00
2018-02-22T08:13:19.194Z,52800.00
2018-02-22T08:14:19.196Z,50048.00
2018-02-22T08:15:19.221Z,49952.00
2018-02-22T08:16:19.207Z,52352.00
2018-02-22T08:17:19.203Z,53056.00
2018-02-22T08:18:19.214Z,54304.00
2018-02-22T08:19:19.212Z,56224.00
2018-02-22T08:20:19.221Z,57152.00
2018-02-22T08:21:19.221Z,56352.00
2018-02-22T08:22:19.243Z,55808.00
2018-02-22T08:23:19.232Z,56544.00
2018-02-22T08:24:19.246Z,56960.00
2018-02-22T08:25:19.246Z,57088.00
2018-02-22T08:26:19.247Z,53824.00
2018-02-22T08:27:19.249Z,52448.00
2018-02-22T08:28:19.263Z,53856.00
2018-02-22T08:29:19.263Z,55904.00
2018-02-22T08:30:19.270Z,57600.00
2018-02-22T08:31:19.279Z,58624.00
2018-02-22T08:32:19.282Z,58368.00
2018-02-22T08:33:19.291Z,55936.00
2018-02-22T08:34:19.295Z,55328.00
2018-02-22T08:35:19.300Z,57600.00
2018-02-22T08:36:19.312Z,61056.00
2018-02-22T08:37:19.317Z,62048.00
2018-02-22T08:38:19.322Z,63008.00
2018-02-22T08:39:19.332Z,63008.00
2018-02-22T08:40:19.335Z,63008.00
2018-02-22T08:41:19.342Z,62816.00
2018-02-22T08:42:19.355Z,63392.00
2018-02-22T08:43:19.411Z,62144.00
2018-02-22T08:44:19.372Z,60704.00
2018-02-22T08:45:19.378Z,61664.00
2018-02-22T08:46:19.383Z,63232.00
2018-02-22T08:47:19.391Z,64128.00
2018-02-22T08:48:19.399Z,61952.00
2018-02-22T08:49:19.411Z,53600.00
2018-02-22T08:50:19.420Z,42400.00
2018-02-22T08:51:19.439Z,31488.00
2018-02-22T08:52:19.433Z,26432.00
2018-02-22T08:53:19.442Z,25152.00
2018-02-22T08:54:19.458Z,25088.00
2018-02-22T08:55:19.466Z,24768.00
2018-02-22T08:56:19.471Z,24864.00
2018-02-22T08:57:19.483Z,24736.00
2018-02-22T08:58:19.495Z,24800.00
2018-02-22T08:59:19.501Z,24864.00
2018-02-22T09:00:19.512Z,25184.00
2018-02-22T09:01:19.526Z,25088.00
2018-02-22T09:02:19.531Z,24928.00
2018-02-22T09:03:19.566Z,25216.00
2018-02-22T09:04:19.550Z,25664.00
2018-02-22T09:05:19.560Z,25984.00
2018-02-22T09:06:19.571Z,26112.00
2018-02-22T09:07:19.578Z,25920.00
2018-02-22T09:08:19.602Z,26048.00
2018-02-22T09:09:19.602Z,25728.00
2018-02-22T09:10:19.609Z,26080.00
2018-02-22T09:11:19.692Z,25728.00
2018-02-22T09:12:19.709Z,25760.00
2018-02-22T09:13:19.731Z,26080.00
2018-02-22T09:14:20.370Z,26240.00
2018-02-22T09:15:19.676Z,26176.00
2018-02-22T09:16:19.722Z,26176.00
2018-02-22T09:17:19.749Z,26144.00
2018-02-22T09:18:19.720Z,26560.00
2018-02-22T09:19:19.711Z,26400.00
2018-02-22T09:20:19.721Z,26304.00
2018-02-22T09:21:19.731Z,26208.00
2018-02-22T09:22:19.739Z,26048.00
2018-02-22T09:23:19.761Z,25856.00
2018-02-22T09:24:19.764Z,26112.00
2018-02-22T09:25:19.778Z,25952.00
2018-02-22T09:26:19.799Z,26144.00
2018-02-22T09:27:19.811Z,26464.00
2018-02-22T09:28:19.820Z,26592.00
2018-02-22T09:29:19.910Z,26112.00
2018-02-22T09:30:19.903Z,26720.00
2018-02-22T09:31:19.916Z,27232.00
2018-02-22T09:32:19.874Z,28128.00
2018-02-22T09:33:19.866Z,28448.00
2018-02-22T09:34:19.881Z,28832.00
2018-02-22T09:35:19.965Z,30432.00
2018-02-22T09:36:19.997Z,33056.00
2018-02-22T09:37:19.905Z,34880.00
2018-02-22T09:38:20.031Z,36544.00
2018-02-22T09:39:19.933Z,37600.00
2018-02-22T09:40:19.945Z,39040.00
2018-02-22T09:41:20.031Z,42304.00
2018-02-22T09:42:20.057Z,47136.00
2018-02-22T09:43:20.065Z,50560.00
2018-02-22T09:44:20.074Z,50848.00
2018-02-22T09:45:20.047Z,48064.00
2018-02-22T09:46:20.055Z,44896.00
2018-02-22T09:47:20.030Z,44000.00
2018-02-22T09:48:20.139Z,44608.00
2018-02-22T09:49:20.130Z,44960.00
2018-02-22T09:50:20.204Z,42464.00
2018-02-22T09:51:20.116Z,40224.00
2018-02-22T09:52:20.172Z,40256.00
2018-02-22T09:53:20.177Z,40096.00
2018-02-22T09:54:20.188Z,40032.00
2018-02-22T09:55:20.219Z,38528.00
2018-02-22T09:56:20.241Z,37216.00
2018-02-22T09:57:20.246Z,37184.00
2018-02-22T09:58:20.175Z,36768.00
2018-02-22T09:59:20.176Z,36832.00
2018-02-22T10:00:20.188Z,36896.00
2018-02-22T10:01:20.198Z,37536.00
2018-02-22T10:02:20.208Z,37504.00
2018-02-22T10:03:20.221Z,37984.00
2018-02-22T10:04:20.233Z,36224.00
2018-02-22T10:05:20.247Z,35200.00
2018-02-22T10:06:20.330Z,33888.00
2018-02-22T10:07:20.271Z,32224.00
2018-02-22T10:08:20.273Z,31648.00
2018-02-22T10:09:20.292Z,30752.00
2018-02-22T10:10:20.297Z,31456.00
2018-02-22T10:11:20.322Z,31296.00
2018-02-22T10:12:20.345Z,32288.00
2018-02-22T10:13:20.346Z,32512.00
2018-02-22T10:14:20.348Z,32384.00
2018-02-22T10:15:20.510Z,32096.00
2018-02-22T10:16:20.425Z,31904.00
2018-02-22T10:17:20.479Z,31168.00
2018-02-22T10:18:20.485Z,32704.00
2018-02-22T10:19:20.506Z,33344.00
2018-02-22T10:20:20.503Z,33632.00
2018-02-22T10:21:20.476Z,32704.00
2018-02-22T10:22:20.554Z,32448.00
2018-02-22T10:23:20.537Z,31552.00
2018-02-22T10:24:20.536Z,31488.00
2018-02-22T10:25:20.461Z,32640.00
2018-02-22T10:26:20.534Z,32320.00
2018-02-22T10:27:20.568Z,33216.00
2018-02-22T10:28:20.518Z,33440.00
2018-02-22T10:29:20.562Z,33632.00
2018-02-22T10:30:20.566Z,34656.00
2018-02-22T10:31:20.587Z,36224.00
2018-02-22T10:32:20.587Z,36864.00
2018-02-22T10:33:20.597Z,37952.00
2018-02-22T10:34:20.600Z,38208.00
2018-02-22T10:35:20.611Z,40032.00
2018-02-22T10:36:20.623Z,41376.00
2018-02-22T10:37:20.633Z,45536.00
2018-02-22T10:38:20.647Z,47680.00
2018-02-22T10:39:20.629Z,49216.00
2018-02-22T10:40:20.681Z,49856.00
2018-02-22T10:41:20.621Z,52320.00
2018-02-22T10:42:20.671Z,56608.00
2018-02-22T10:43:20.695Z,63520.00
2018-02-22T10:44:20.696Z,65088.00
2018-02-22T10:45:20.703Z,63872.00
2018-02-22T10:46:20.671Z,56864.00
2018-02-22T10:47:20.676Z,51296.00
2018-02-22T10:48:20.745Z,46016.00
2018-02-22T10:49:20.711Z,42144.00
2018-02-22T10:50:20.758Z,39584.00
2018-02-22T10:51:20.705Z,35424.00
2018-02-22T10:52:20.731Z,33024.00
2018-02-22T10:53:20.766Z,30272.00
2018-02-22T10:54:20.784Z,28384.00
2018-02-22T10:55:20.792Z,28032.00
2018-02-22T10:56:20.750Z,27200.00
2018-02-22T10:57:20.806Z,24896.00
2018-02-22T10:58:20.814Z,24000.00
2018-02-22T10:59:20.824Z,23200.00
2018-02-22T11:00:20.828Z,21952.00
2018-02-22T11:01:20.844Z,21408.00
2018-02-22T11:02:20.867Z,20256.00
2018-02-22T11:03:20.860Z,19296.00
2018-02-22T11:04:20.860Z,18496.00
2018-02-22T11:05:20.828Z,18400.00
2018-02-22T11:06:20.873Z,17856.00
2018-02-22T11:07:20.892Z,17632.00
2018-02-22T11:08:20.842Z,17472.00
2018-02-22T11:09:20.889Z,16928.00
2018-02-22T11:10:20.858Z,16480.00
2018-02-22T11:11:20.868Z,16128.00
2018-02-22T11:12:20.876Z,15660.00
2018-02-22T11:13:20.887Z,15364.00
2018-02-22T11:14:20.888Z,14952.00
2018-02-22T11:15:20.897Z,14704.00
2018-02-22T11:16:20.908Z,14424.00
2018-02-22T11:17:20.912Z,14220.00
2018-02-22T11:18:20.916Z,14260.00
2018-02-22T11:19:20.921Z,13884.00
2018-02-22T11:20:20.934Z,13356.00
2018-02-22T11:21:20.941Z,13440.00
2018-02-22T11:22:20.945Z,13104.00
2018-02-22T11:23:20.949Z,12932.00
2018-02-22T11:24:20.962Z,12772.00
2018-02-22T11:25:20.971Z,12664.00
2018-02-22T11:26:20.978Z,12436.00
2018-02-22T11:27:20.979Z,12416.00
2018-02-22T11:28:20.988Z,12008.00
2018-02-22T11:29:21.002Z,12004.00
2018-02-22T11:30:21.009Z,11692.00
2018-02-22T11:31:21.005Z,11648.00
2018-02-22T11:32:21.022Z,11600.00
2018-02-22T11:33:21.045Z,11524.00
2018-02-22T11:34:21.046Z,11192.00
2018-02-22T11:35:21.029Z,11292.00
2018-02-22T11:36:21.044Z,11212.00
2018-02-22T11:37:21.046Z,11016.00
2018-02-22T11:38:21.051Z,11004.00
2018-02-22T11:39:21.060Z,11016.00
2018-02-22T11:40:21.066Z,10812.00
2018-02-22T11:41:21.069Z,10572.00
2018-02-22T11:42:21.075Z,10472.00
2018-02-22T11:43:21.078Z,10276.00
2018-02-22T11:44:21.091Z,10528.00
2018-02-22T11:45:21.091Z,10044.00
2018-02-22T11:46:21.100Z,10036.00
2018-02-22T11:47:21.099Z,9932.00
2018-02-22T11:48:21.114Z,9624.00
2018-02-22T11:49:21.139Z,9708.00
2018-02-22T11:50:21.178Z,9644.00
2018-02-22T11:51:21.122Z,9756.00
2018-02-22T11:52:21.159Z,9360.00
2018-02-22T11:53:21.138Z,9304.00
2018-02-22T11:54:21.145Z,9232.00
2018-02-22T11:55:21.150Z,9196.00
2018-02-22T11:56:21.157Z,8944.00
2018-02-22T11:57:21.164Z,9092.00
2018-02-22T11:58:21.173Z,8912.00
2018-02-22T11:59:21.168Z,8776.00
2018-02-22T12:00:21.180Z,8688.00
2018-02-22T12:01:21.181Z,8716.00
2018-02-22T12:02:21.184Z,8672.00
2018-02-22T12:03:21.188Z,8536.00
2018-02-22T12:04:21.195Z,8460.00
2018-02-22T12:05:21.202Z,8340.00
2018-02-22T12:06:21.204Z,8284.00
2018-02-22T12:07:21.210Z,8284.00
2018-02-22T12:08:21.213Z,8092.00
2018-02-22T12:09:21.215Z,8144.00
2018-02-22T12:10:21.223Z,7952.00
2018-02-22T12:11:21.294Z,7872.00
2018-02-22T12:12:21.235Z,7980.00
2018-02-22T12:13:21.234Z,7632.00
2018-02-22T12:14:21.242Z,7572.00
2018-02-22T12:15:21.245Z,6512.00
2018-02-22T12:16:21.252Z,4816.00
2018-02-22T12:17:21.256Z,4336.00
2018-02-22T12:18:21.258Z,4340.00
2018-02-22T12:19:21.293Z,4244.00
2018-02-22T12:20:21.272Z,4328.00
2018-02-22T12:21:21.269Z,4316.00
2018-02-22T12:22:21.284Z,4324.00
2018-02-22T12:23:21.286Z,4280.00
2018-02-22T12:24:21.291Z,4276.00
2018-02-22T12:25:21.297Z,4272.00
2018-02-22T12:26:21.298Z,4316.00
2018-02-22T12:27:21.289Z,4304.00
2018-02-22T12:28:21.299Z,4148.00
2018-02-22T12:29:21.318Z,4284.00
2018-02-22T12:30:21.343Z,4224.00
2018-02-22T12:31:21.309Z,4340.00
2018-02-22T12:32:21.315Z,4284.00
2018-02-22T12:33:21.315Z,4196.00
2018-02-22T12:34:21.339Z,4164.00